This is the latest recevied weather packets stored in our database for station/object OK1KZE-6. If no packets are shown the sender has not sent any weather packets the latest 10 day(s).
| Time | Temp. | Humidity | Pressure | Rain* | Wind** | Luminosity | Snow |
|---|---|---|---|---|---|---|---|
| 1777979707 | -1.11° C | 100% | 1010.1 hPa | - | - | - | - |
| 1777979408 | 20.56° C | 51% | 1010.2 hPa | - | - | - | - |
| 1777979108 | 20.56° C | 51% | 1010.3 hPa | - | - | - | - |
| 1777978808 | 21.11° C | 51% | 1010.2 hPa | - | - | - | - |
| 1777978507 | 21.11° C | 51% | 1010.4 hPa | - | - | - | - |
| 1777977908 | 20° C | 53% | 1010 hPa | - | - | - | - |
| 1777977607 | 20° C | 53% | 1010.3 hPa | - | - | - | - |
| 1777977308 | 20.56° C | 53% | 1010.3 hPa | - | - | - | - |
| 1777977008 | 20.56° C | 54% | 1010.2 hPa | - | - | - | - |
| 1777976707 | 20.56° C | 54% | 1010.4 hPa | - | - | - | - |
| 1777976108 | 20° C | 54% | 1010.5 hPa | - | - | - | - |
| 1777975807 | 20° C | 53% | 1010.4 hPa | - | - | - | - |
| 1777975508 | 20° C | 54% | 1010.3 hPa | - | - | - | - |
| 1777975208 | 20° C | 56% | 1010.3 hPa | - | - | - | - |
| 1777974608 | 20° C | 56% | 1010.5 hPa | - | - | - | - |
| 1777974307 | 20° C | 58% | 1010.5 hPa | - | - | - | - |
| 1777974007 | 18.89° C | 58% | 1010.5 hPa | - | - | - | - |
| 1777973708 | 19.44° C | 57% | 1010.6 hPa | - | - | - | - |
| 1777973109 | 18.89° C | 60% | 1010.7 hPa | - | - | - | - |
| 1777972807 | 18.89° C | 60% | 1010.6 hPa | - | - | - | - |
| 1777972508 | 19.44° C | 61% | 1010.7 hPa | - | - | - | - |
| 1777972207 | 19.44° C | 63% | 1011 hPa | - | - | - | - |
| 1777971908 | 19.44° C | 62% | 1010.8 hPa | - | - | - | - |
| 1777971608 | 19.44° C | 64% | 1011 hPa | - | - | - | - |
| 1777971307 | 18.89° C | 63% | 1010.8 hPa | - | - | - | - |
* Rain since midnight (hover to see other rain measurements)
** Current wind speed in m/s (hover to see current wind gust speed)